createdAt,value
2023-10-09T00:02:11.475Z,27.13
2023-10-09T00:04:41.914Z,26.77
2023-10-09T00:07:09.617Z,29.75
2023-10-09T00:09:48.612Z,28.17
2023-10-09T00:12:17.510Z,26.50
2023-10-09T00:14:49.007Z,25.98
2023-10-09T00:17:17.706Z,27.10
2023-10-09T00:19:51.017Z,24.92
2023-10-09T00:22:27.367Z,28.30
2023-10-09T00:25:21.098Z,28.35
2023-10-09T00:27:47.687Z,25.42
2023-10-09T00:30:19.219Z,26.45
2023-10-09T00:33:00.659Z,20.30
2023-10-09T00:35:37.808Z,24.83
2023-10-09T00:38:21.952Z,25.00
2023-10-09T00:40:57.995Z,26.90
2023-10-09T00:43:30.408Z,28.25
2023-10-09T00:46:20.499Z,23.95
2023-10-09T00:48:53.522Z,21.63
2023-10-09T00:51:23.153Z,27.13
2023-10-09T00:53:53.956Z,23.10
2023-10-09T00:56:39.643Z,24.15
2023-10-09T00:59:11.235Z,22.77
2023-10-09T01:01:41.272Z,26.47
2023-10-09T01:04:19.131Z,21.92
2023-10-09T01:07:05.591Z,22.38
2023-10-09T01:09:38.314Z,21.33
2023-10-09T01:12:05.683Z,22.05
2023-10-09T01:14:37.074Z,23.50
2023-10-09T01:17:10.158Z,21.27
2023-10-09T01:19:37.528Z,20.45
2023-10-09T01:22:13.851Z,22.80
2023-10-09T01:24:41.292Z,23.30
2023-10-09T01:27:15.923Z,23.40
2023-10-09T01:29:43.156Z,24.02
2023-10-09T01:32:17.594Z,22.90
2023-10-09T01:34:45.317Z,22.98
2023-10-09T01:37:19.946Z,22.20
2023-10-09T01:39:49.282Z,21.87
2023-10-09T01:42:31.315Z,18.48
2023-10-09T01:44:59.900Z,22.63
2023-10-09T01:47:32.524Z,21.60
2023-10-09T01:49:59.155Z,25.52
2023-10-09T01:52:25.552Z,24.63
2023-10-09T01:54:52.843Z,29.05
2023-10-09T01:57:24.368Z,21.75
2023-10-09T01:59:54.287Z,21.63
2023-10-09T02:02:28.708Z,24.13
2023-10-09T02:05:13.715Z,22.17
2023-10-09T02:07:52.670Z,20.23
2023-10-09T02:10:32.351Z,19.45
2023-10-09T02:13:10.194Z,18.80
2023-10-09T02:15:47.318Z,18.05
2023-10-09T02:18:25.108Z,22.57
2023-10-09T02:21:06.315Z,20.10
2023-10-09T02:23:40.535Z,22.45
2023-10-09T02:26:08.442Z,22.35
2023-10-09T02:28:35.892Z,20.42
2023-10-09T02:31:11.236Z,21.70
2023-10-09T02:33:40.345Z,18.80
2023-10-09T02:36:07.866Z,18.67
2023-10-09T02:38:36.620Z,22.88
2023-10-09T02:41:05.977Z,19.80
2023-10-09T02:43:49.041Z,17.53
2023-10-09T02:46:19.708Z,20.95
2023-10-09T02:48:53.761Z,23.02
2023-10-09T02:51:29.395Z,19.05
2023-10-09T02:54:00.331Z,19.92
2023-10-09T02:56:44.175Z,19.20
2023-10-09T02:59:11.013Z,19.90
2023-10-09T03:01:40.289Z,20.52
2023-10-09T03:04:07.733Z,15.73
2023-10-09T03:06:41.315Z,19.38
2023-10-09T03:09:17.689Z,15.50
2023-10-09T03:11:47.530Z,18.48
2023-10-09T03:14:14.570Z,15.75
2023-10-09T03:16:41.134Z,18.95
2023-10-09T03:19:08.403Z,17.52
2023-10-09T03:21:34.920Z,19.33
2023-10-09T03:24:05.852Z,15.77
2023-10-09T03:26:32.608Z,16.98
2023-10-09T03:29:02.103Z,20.15
2023-10-09T03:31:32.939Z,21.33
2023-10-09T03:33:59.642Z,17.93
2023-10-09T03:36:27.862Z,18.70
2023-10-09T03:38:59.466Z,18.42
2023-10-09T03:41:30.284Z,17.33
2023-10-09T03:43:56.869Z,17.38
2023-10-09T03:46:27.350Z,17.80
2023-10-09T03:48:57.200Z,20.67
2023-10-09T03:51:24.419Z,13.90
2023-10-09T03:53:53.873Z,18.33
2023-10-09T03:56:22.400Z,14.70
2023-10-09T03:58:50.607Z,13.73
2023-10-09T04:01:25.283Z,13.98
2023-10-09T04:04:01.824Z,16.92
2023-10-09T04:06:32.102Z,13.48
2023-10-09T04:09:00.171Z,15.60
2023-10-09T04:11:26.939Z,14.70
2023-10-09T04:14:01.005Z,12.23
2023-10-09T04:16:35.278Z,12.52
2023-10-09T04:19:12.101Z,11.93
2023-10-09T04:21:39.239Z,14.85
2023-10-09T04:24:10.091Z,9.63
2023-10-09T04:26:38.226Z,11.23
2023-10-09T04:29:05.037Z,12.25
2023-10-09T04:31:38.376Z,13.68
2023-10-09T04:34:23.654Z,10.73
2023-10-09T04:36:52.361Z,10.13
2023-10-09T04:39:31.284Z,12.68
2023-10-09T04:42:17.740Z,11.40
2023-10-09T04:45:03.135Z,10.25
2023-10-09T04:47:40.066Z,8.98
2023-10-09T04:50:36.987Z,12.13
2023-10-09T04:53:18.870Z,10.13
2023-10-09T04:55:55.293Z,8.80
2023-10-09T04:58:29.180Z,7.95
2023-10-09T05:00:59.074Z,7.97
2023-10-09T05:03:30.675Z,11.93
2023-10-09T05:06:00.032Z,12.02
2023-10-09T05:08:27.928Z,10.75
2023-10-09T05:11:00.199Z,7.00
2023-10-09T05:13:40.142Z,11.35
2023-10-09T05:16:14.592Z,11.00
2023-10-09T05:18:41.143Z,10.98
2023-10-09T05:21:13.329Z,10.18
2023-10-09T05:23:49.741Z,8.85
2023-10-09T05:26:35.150Z,8.80
2023-10-09T05:29:11.123Z,8.50
2023-10-09T05:31:57.114Z,13.38
2023-10-09T05:34:35.066Z,7.05
2023-10-09T05:37:19.130Z,7.65
2023-10-09T05:39:59.319Z,8.27
2023-10-09T05:42:43.796Z,8.40
2023-10-09T05:45:19.402Z,8.23
2023-10-09T05:48:02.964Z,9.52
2023-10-09T05:50:30.507Z,9.05
2023-10-09T05:53:06.140Z,9.00
2023-10-09T05:55:51.284Z,8.37
2023-10-09T05:58:36.039Z,10.15
2023-10-09T06:01:20.924Z,9.07
2023-10-09T06:03:55.013Z,8.25
2023-10-09T06:06:35.037Z,13.60
2023-10-09T06:09:14.702Z,10.70
2023-10-09T06:11:55.292Z,9.45
2023-10-09T06:14:26.521Z,6.88
2023-10-09T06:17:20.234Z,8.20
2023-10-09T06:19:49.909Z,5.85
2023-10-09T06:22:51.778Z,12.93
2023-10-09T06:25:19.204Z,8.23
2023-10-09T06:27:58.402Z,5.88
2023-10-09T06:30:26.106Z,7.45
2023-10-09T06:32:59.460Z,6.10
2023-10-09T06:35:32.777Z,8.30
2023-10-09T06:38:03.157Z,9.07
2023-10-09T06:40:55.325Z,5.45
2023-10-09T06:43:23.138Z,5.32
2023-10-09T06:45:56.295Z,8.20
2023-10-09T06:48:35.296Z,8.80
2023-10-09T06:51:16.973Z,6.60
2023-10-09T06:53:55.740Z,7.50
2023-10-09T06:56:32.181Z,8.27
2023-10-09T06:59:16.683Z,10.23
2023-10-09T07:01:44.056Z,8.40
2023-10-09T07:04:19.744Z,8.48
2023-10-09T07:06:47.421Z,7.72
2023-10-09T07:09:14.862Z,7.28
2023-10-09T07:11:49.488Z,11.40
2023-10-09T07:14:33.840Z,6.60
2023-10-09T07:17:02.022Z,5.93
2023-10-09T07:19:35.693Z,6.75
2023-10-09T07:22:05.624Z,10.88
2023-10-09T07:24:44.822Z,9.50
2023-10-09T07:27:14.074Z,7.70
2023-10-09T07:29:49.623Z,8.75
2023-10-09T07:32:22.994Z,9.82
2023-10-09T07:35:00.228Z,6.43
2023-10-09T07:37:35.623Z,8.60
2023-10-09T07:40:09.273Z,10.53
2023-10-09T07:42:41.592Z,6.43
2023-10-09T07:45:35.116Z,10.15
2023-10-09T07:48:01.886Z,8.07
2023-10-09T07:50:42.086Z,9.27
2023-10-09T07:53:27.100Z,11.27
2023-10-09T07:56:07.484Z,14.05
2023-10-09T07:58:47.045Z,11.65
2023-10-09T08:01:17.539Z,9.20
2023-10-09T08:03:49.937Z,9.95
2023-10-09T08:06:36.440Z,11.73
2023-10-09T08:09:20.149Z,9.02
2023-10-09T08:12:15.174Z,7.35
2023-10-09T08:14:46.542Z,7.97
2023-10-09T08:17:16.584Z,13.32
2023-10-09T08:19:54.446Z,9.70
2023-10-09T08:22:25.147Z,9.23
2023-10-09T08:24:58.530Z,9.10
2023-10-09T08:27:49.111Z,10.95
2023-10-09T08:30:18.579Z,7.75
2023-10-09T08:35:36.821Z,9.70
2023-10-09T08:38:11.619Z,11.15
2023-10-09T08:40:40.842Z,10.18
2023-10-09T08:43:11.092Z,13.63
2023-10-09T08:45:41.663Z,8.80
2023-10-09T08:48:12.619Z,7.07
2023-10-09T08:50:40.451Z,9.93
2023-10-09T08:53:07.445Z,18.13
2023-10-09T08:55:33.933Z,13.00
2023-10-09T08:58:01.101Z,15.73
2023-10-09T09:00:34.347Z,8.48
2023-10-09T09:03:01.611Z,9.23
2023-10-09T09:05:30.950Z,9.45
2023-10-09T09:08:00.648Z,8.05
2023-10-09T09:10:36.577Z,11.80
2023-10-09T09:13:04.841Z,8.50
2023-10-09T09:15:31.911Z,8.15
2023-10-09T09:18:12.727Z,8.38
2023-10-09T09:20:41.578Z,12.10
2023-10-09T09:23:13.514Z,10.80
2023-10-09T09:25:49.081Z,6.95
2023-10-09T09:28:22.496Z,9.48
2023-10-09T09:30:52.317Z,8.43
2023-10-09T09:33:31.504Z,9.45
2023-10-09T09:36:08.001Z,6.33
2023-10-09T09:38:52.369Z,11.90
2023-10-09T09:41:26.270Z,6.43
2023-10-09T09:43:57.137Z,10.70
2023-10-09T09:46:33.749Z,10.02
2023-10-09T09:49:04.968Z,8.90
2023-10-09T09:51:32.473Z,12.07
2023-10-09T09:53:59.201Z,7.88
2023-10-09T09:56:26.896Z,8.10
2023-10-09T09:58:54.773Z,10.55
2023-10-09T10:01:26.608Z,7.00
2023-10-09T10:04:01.017Z,9.55
2023-10-09T10:06:33.304Z,6.65
2023-10-09T10:09:00.368Z,10.65
2023-10-09T10:12:06.777Z,17.45
2023-10-09T10:14:53.713Z,5.63
2023-10-09T10:17:23.528Z,8.45
2023-10-09T10:20:05.687Z,10.20
2023-10-09T10:22:34.035Z,10.50
2023-10-09T10:25:03.968Z,8.15
2023-10-09T10:27:46.109Z,15.03
2023-10-09T10:30:12.833Z,10.10
2023-10-09T10:32:54.347Z,9.85
2023-10-09T10:35:33.265Z,9.02
2023-10-09T10:38:06.091Z,6.70
2023-10-09T10:40:47.767Z,10.33
2023-10-09T10:43:33.463Z,6.47
2023-10-09T10:46:31.603Z,11.70
2023-10-09T10:49:16.498Z,8.98
2023-10-09T10:51:49.238Z,6.10
2023-10-09T10:54:46.848Z,12.17
2023-10-09T10:57:21.004Z,9.40
2023-10-09T10:59:50.482Z,9.00
2023-10-09T11:02:29.236Z,5.35
2023-10-09T11:04:57.103Z,9.50
2023-10-09T11:07:28.225Z,9.17
2023-10-09T11:10:05.844Z,7.85
2023-10-09T11:12:43.689Z,8.05
2023-10-09T11:15:22.840Z,11.10
2023-10-09T11:18:06.382Z,8.90
2023-10-09T11:20:36.017Z,8.13
2023-10-09T11:23:12.117Z,10.70
2023-10-09T11:25:51.746Z,6.97
2023-10-09T11:28:43.515Z,7.80
2023-10-09T11:31:17.046Z,8.27
2023-10-09T11:33:52.442Z,6.07
2023-10-09T11:36:33.601Z,6.28
2023-10-09T11:39:19.880Z,5.93
2023-10-09T11:41:50.589Z,6.63
2023-10-09T11:44:26.160Z,9.63
2023-10-09T11:47:19.304Z,7.00
2023-10-09T11:50:02.664Z,8.57
2023-10-09T11:52:32.872Z,7.53
2023-10-09T11:54:59.858Z,6.03
2023-10-09T11:57:34.461Z,6.97
2023-10-09T12:00:02.159Z,14.67
2023-10-09T12:02:28.882Z,5.72
2023-10-09T12:04:58.591Z,6.72
2023-10-09T12:07:26.237Z,4.72
2023-10-09T12:09:57.402Z,11.43
2023-10-09T12:12:27.406Z,5.53
2023-10-09T12:14:54.612Z,10.38
2023-10-09T12:17:25.750Z,6.85
2023-10-09T12:19:52.498Z,8.18
2023-10-09T12:22:21.437Z,7.53
2023-10-09T12:24:48.819Z,6.13
2023-10-09T12:27:15.346Z,5.15
2023-10-09T12:29:47.195Z,5.80
2023-10-09T12:32:20.597Z,9.02
2023-10-09T12:34:51.448Z,4.90
2023-10-09T12:37:21.781Z,5.80
2023-10-09T12:39:48.875Z,6.68
2023-10-09T12:42:17.907Z,6.85
2023-10-09T12:44:45.477Z,6.65
2023-10-09T12:47:12.443Z,5.70
2023-10-09T12:49:45.037Z,7.40
2023-10-09T12:52:18.128Z,11.55
2023-10-09T12:54:47.632Z,7.88
2023-10-09T12:57:17.019Z,6.53
2023-10-09T12:59:46.767Z,7.22
2023-10-09T13:02:15.086Z,10.50
2023-10-09T13:04:43.684Z,10.27
2023-10-09T13:07:10.588Z,7.68
2023-10-09T13:09:43.668Z,5.03
2023-10-09T13:12:19.042Z,7.65
2023-10-09T13:14:46.589Z,8.80
2023-10-09T13:17:13.124Z,9.15
2023-10-09T13:19:39.711Z,10.27
2023-10-09T13:22:13.963Z,19.70
2023-10-09T13:24:41.445Z,9.10
2023-10-09T13:27:10.774Z,8.57
2023-10-09T13:29:41.084Z,7.50
2023-10-09T13:32:14.693Z,9.13
2023-10-09T13:34:45.616Z,12.85
2023-10-09T13:37:15.057Z,7.65
2023-10-09T13:39:53.184Z,10.47
2023-10-09T13:42:19.712Z,10.35
2023-10-09T13:44:49.721Z,4.80
2023-10-09T13:47:20.561Z,9.57
2023-10-09T13:49:51.662Z,5.35
2023-10-09T13:52:23.138Z,7.10
2023-10-09T13:54:50.814Z,10.15
2023-10-09T13:57:17.650Z,9.02
2023-10-09T13:59:49.997Z,9.38
2023-10-09T14:02:22.208Z,7.57
2023-10-09T14:04:49.160Z,6.90
2023-10-09T14:07:18.046Z,8.07
2023-10-09T14:09:45.511Z,7.80
2023-10-09T14:12:12.462Z,8.02
2023-10-09T14:14:48.919Z,11.15
2023-10-09T14:17:15.880Z,6.47
2023-10-09T14:19:48.185Z,7.70
2023-10-09T14:22:17.098Z,8.90
2023-10-09T14:24:47.290Z,5.20
2023-10-09T14:27:18.717Z,8.48
2023-10-09T14:29:46.583Z,5.03
2023-10-09T14:32:16.666Z,7.95
2023-10-09T14:34:47.140Z,10.27
2023-10-09T14:37:16.110Z,10.52
2023-10-09T14:39:43.849Z,7.65
2023-10-09T14:42:13.939Z,12.73
2023-10-09T14:44:41.629Z,7.95
2023-10-09T14:47:08.673Z,8.98
2023-10-09T14:49:44.568Z,7.10
2023-10-09T14:52:11.641Z,8.73
2023-10-09T14:54:39.443Z,11.97
2023-10-09T14:57:07.264Z,10.27
2023-10-09T14:59:34.432Z,10.45
2023-10-09T15:02:01.631Z,7.53
2023-10-09T15:04:28.261Z,8.57
2023-10-09T15:06:54.757Z,9.97
2023-10-09T15:09:24.136Z,9.80
2023-10-09T15:11:52.049Z,5.53
2023-10-09T15:14:22.094Z,9.60
2023-10-09T15:16:48.940Z,9.30
2023-10-09T15:19:17.524Z,6.30
2023-10-09T15:21:47.242Z,12.13
2023-10-09T15:24:19.391Z,9.02
2023-10-09T15:26:53.537Z,9.57
2023-10-09T15:29:24.636Z,9.05
2023-10-09T15:31:51.585Z,7.20
2023-10-09T15:34:19.746Z,9.20
2023-10-09T15:36:48.187Z,10.75
2023-10-09T15:39:20.090Z,10.18
2023-10-09T15:41:47.738Z,9.50
2023-10-09T15:44:15.024Z,21.40
2023-10-09T15:46:41.757Z,7.15
2023-10-09T15:49:10.670Z,8.35
2023-10-09T15:51:37.191Z,12.18
2023-10-09T15:54:03.719Z,6.28
2023-10-09T15:56:30.264Z,6.27
2023-10-09T15:58:57.458Z,7.10
2023-10-09T16:01:23.923Z,9.25
2023-10-09T16:03:51.210Z,12.27
2023-10-09T16:06:19.487Z,8.48
2023-10-09T16:08:51.099Z,11.73
2023-10-09T16:11:24.717Z,7.97
2023-10-09T16:13:52.613Z,7.95
2023-10-09T16:16:31.835Z,9.48
2023-10-09T16:19:01.205Z,8.45
2023-10-09T16:21:28.060Z,6.83
2023-10-09T16:24:00.318Z,8.27
2023-10-09T16:26:27.775Z,7.57
2023-10-09T16:28:54.486Z,11.23
2023-10-09T16:31:21.338Z,7.13
2023-10-09T16:33:50.455Z,7.33
2023-10-09T16:36:16.973Z,7.47
2023-10-09T16:38:44.672Z,4.75
2023-10-09T16:41:11.315Z,6.93
2023-10-09T16:43:44.636Z,10.20
2023-10-09T16:46:13.984Z,11.53
2023-10-09T16:48:40.831Z,9.73
2023-10-09T16:51:09.884Z,9.23
2023-10-09T16:53:37.990Z,10.77
2023-10-09T16:56:10.913Z,11.15
2023-10-09T16:58:39.038Z,6.13
2023-10-09T17:01:12.325Z,11.43
2023-10-09T17:03:43.278Z,9.77
2023-10-09T17:06:11.060Z,6.40
2023-10-09T17:08:43.565Z,9.55
2023-10-09T17:11:21.310Z,9.07
2023-10-09T17:13:51.266Z,9.50
2023-10-09T17:16:20.714Z,10.25
2023-10-09T17:18:50.818Z,8.57
2023-10-09T17:21:17.611Z,8.73
2023-10-09T17:23:47.927Z,5.40
2023-10-09T17:26:19.551Z,9.00
2023-10-09T17:28:47.065Z,9.63
2023-10-09T17:31:14.142Z,6.60
2023-10-09T17:33:44.303Z,17.77
2023-10-09T17:36:12.841Z,10.73
2023-10-09T17:38:39.464Z,10.05
2023-10-09T17:41:09.757Z,8.38
2023-10-09T17:43:36.704Z,8.95
2023-10-09T17:46:05.462Z,7.90
2023-10-09T17:48:32.476Z,12.03
2023-10-09T17:51:00.258Z,9.98
2023-10-09T17:53:30.192Z,11.45
2023-10-09T17:55:57.182Z,8.10
2023-10-09T17:58:27.295Z,11.55
2023-10-09T18:01:00.008Z,11.40
2023-10-09T18:03:31.038Z,8.60
2023-10-09T18:05:58.571Z,8.50
2023-10-09T18:08:26.907Z,10.23
2023-10-09T18:10:57.807Z,9.80
2023-10-09T18:13:26.076Z,10.30
2023-10-09T18:16:08.791Z,9.15
2023-10-09T18:18:39.544Z,8.55
2023-10-09T18:21:07.600Z,8.38
2023-10-09T18:23:36.752Z,8.93
2023-10-09T18:26:07.895Z,13.80
2023-10-09T18:28:37.772Z,8.73
2023-10-09T18:31:11.009Z,13.70
2023-10-09T18:33:37.490Z,7.72
2023-10-09T18:36:10.590Z,11.80
2023-10-09T18:38:39.513Z,8.47
2023-10-09T18:41:07.862Z,9.35
2023-10-09T18:43:41.205Z,12.70
2023-10-09T18:46:12.438Z,4.45
2023-10-09T18:48:39.437Z,8.18
2023-10-09T18:51:05.915Z,7.43
2023-10-09T18:53:32.878Z,7.95
2023-10-09T18:56:02.767Z,6.63
2023-10-09T18:58:29.408Z,5.88
2023-10-09T19:01:07.385Z,7.75
2023-10-09T19:03:34.388Z,5.23
2023-10-09T19:06:00.796Z,6.40
2023-10-09T19:08:27.470Z,6.25
2023-10-09T19:11:01.466Z,5.35
2023-10-09T19:13:28.816Z,4.63
2023-10-09T19:15:56.655Z,4.23
2023-10-09T19:18:25.773Z,6.90
2023-10-09T19:20:53.826Z,5.93
2023-10-09T19:23:21.088Z,4.32
2023-10-09T19:25:47.960Z,8.32
2023-10-09T19:28:16.031Z,4.03
2023-10-09T19:30:42.719Z,7.10
2023-10-09T19:33:09.272Z,7.05
2023-10-09T19:35:35.876Z,4.78
2023-10-09T19:38:02.431Z,4.63
2023-10-09T19:40:29.961Z,5.20
2023-10-09T19:42:57.915Z,3.97
2023-10-09T19:45:24.421Z,3.67
2023-10-09T19:47:51.151Z,6.70
2023-10-09T19:50:18.088Z,6.03
2023-10-09T19:52:51.966Z,6.93
2023-10-09T19:55:22.441Z,5.35
2023-10-09T19:57:49.046Z,4.40
2023-10-09T20:00:22.248Z,5.93
2023-10-09T20:02:54.884Z,4.00
2023-10-09T20:05:23.866Z,4.10
2023-10-09T20:07:50.709Z,3.95
2023-10-09T20:10:19.370Z,5.97
2023-10-09T20:12:46.295Z,4.68
2023-10-09T20:15:14.460Z,5.25
2023-10-09T20:17:44.318Z,4.57
2023-10-09T20:20:12.538Z,4.53
2023-10-09T20:22:40.369Z,3.72
2023-10-09T20:25:18.386Z,4.03
2023-10-09T20:27:44.820Z,5.78
2023-10-09T20:30:12.257Z,4.47
2023-10-09T20:32:42.641Z,4.25
2023-10-09T20:35:16.432Z,7.32
2023-10-09T20:37:44.727Z,3.97
2023-10-09T20:40:18.812Z,4.97
2023-10-09T20:42:47.316Z,4.80
2023-10-09T20:45:14.025Z,7.13
2023-10-09T20:47:47.797Z,4.90
2023-10-09T20:50:18.041Z,4.68
2023-10-09T20:52:46.371Z,7.03
2023-10-09T20:55:13.032Z,8.33
2023-10-09T20:57:41.606Z,7.13
2023-10-09T21:00:20.048Z,4.72
2023-10-09T21:02:56.349Z,5.20
2023-10-09T21:05:24.639Z,5.47
2023-10-09T21:07:54.376Z,6.47
2023-10-09T21:10:22.061Z,5.88
2023-10-09T21:12:50.238Z,7.93
2023-10-09T21:15:23.348Z,8.73
2023-10-09T21:17:53.209Z,4.97
2023-10-09T21:20:20.614Z,4.07
2023-10-09T21:22:58.782Z,7.22
2023-10-09T21:25:26.627Z,5.22
2023-10-09T21:27:55.362Z,4.53
2023-10-09T21:30:24.237Z,5.35
2023-10-09T21:32:51.318Z,8.17
2023-10-09T21:35:19.288Z,6.47
2023-10-09T21:37:51.831Z,5.53
2023-10-09T21:40:24.495Z,5.13
2023-10-09T21:42:54.155Z,4.90
2023-10-09T21:45:22.582Z,4.77
2023-10-09T21:47:56.257Z,7.93
2023-10-09T21:50:27.481Z,9.68
2023-10-09T21:52:58.947Z,4.88
2023-10-09T21:55:28.938Z,3.50
2023-10-09T21:57:56.405Z,4.33
2023-10-09T22:00:32.330Z,4.38
2023-10-09T22:03:06.384Z,5.60
2023-10-09T22:05:34.043Z,3.42
2023-10-09T22:08:00.936Z,5.88
2023-10-09T22:10:29.389Z,4.00
2023-10-09T22:12:55.878Z,5.57
2023-10-09T22:15:23.224Z,4.43
2023-10-09T22:17:49.702Z,5.63
2023-10-09T22:20:20.875Z,6.47
2023-10-09T22:22:57.642Z,3.67
2023-10-09T22:25:26.160Z,4.03
2023-10-09T22:28:14.630Z,5.80
2023-10-09T22:30:44.277Z,4.65
2023-10-09T22:33:20.866Z,4.10
2023-10-09T22:35:47.480Z,4.83
2023-10-09T22:38:16.956Z,6.85
2023-10-09T22:40:49.633Z,4.50
2023-10-09T22:43:18.071Z,4.47
2023-10-09T22:45:44.581Z,3.67
2023-10-09T22:48:15.420Z,4.37
2023-10-09T22:50:48.894Z,4.95
2023-10-09T22:53:34.707Z,3.58
2023-10-09T22:56:02.470Z,6.60
2023-10-09T22:58:37.710Z,6.40
2023-10-09T23:01:22.770Z,4.07
2023-10-09T23:04:14.109Z,4.65
2023-10-09T23:06:46.247Z,5.55
2023-10-09T23:09:17.412Z,7.13
2023-10-09T23:11:54.971Z,5.57
2023-10-09T23:14:28.873Z,6.47
2023-10-09T23:17:02.859Z,4.68
2023-10-09T23:19:42.131Z,4.47
2023-10-09T23:22:12.554Z,3.22
2023-10-09T23:25:09.366Z,7.28
2023-10-09T23:27:43.869Z,4.07
2023-10-09T23:30:27.195Z,3.67
2023-10-09T23:33:10.543Z,6.63
2023-10-09T23:36:04.990Z,4.60
2023-10-09T23:38:31.747Z,4.82
2023-10-09T23:40:59.750Z,5.40
2023-10-09T23:43:32.357Z,4.70
2023-10-09T23:45:59.505Z,5.40
2023-10-09T23:48:30.064Z,4.28
2023-10-09T23:51:02.239Z,4.20
2023-10-09T23:53:36.923Z,3.90
2023-10-09T23:56:11.549Z,8.20
2023-10-09T23:58:42.150Z,5.47
